Aérodrome :
LOGIN :

S'inscrire | Disclaimer

   EN    FR    IT 

 










Légende :    VFR   VFR Marginal   IFR   IFR Intensif   IFR Très Intensif
Visi : 
Plafond : 
>= 8 km
>= 3000ft
5 à 8 km
1000 à 3000 ft
1500m à 5 km
500 à 1000 ft
800 à 1500m
200 à 500 ft
< 800m
< 200 ft
Symboles :   Orages  Brouillard  Fortes neiges  Fortes précipitations  Vent > 20 kt
SIGMETs :   Divers  Orages  Givrage  Turbulence  Onde Orograph.  Cendres Volcan.






- Altitude de l'aérodrome : 408 ft
- Code IATA : SOB


LHSM - Sarmellek Balaton

DERNIER METAR :
  • 200845Z AUTO 02007KT 340V040 7000 OVC009 03/01 Q1044 NOSIG

METARs EXPIRÉS :
  • 200815Z AUTO 01006KT 340V050 6000 OVC008 03/01 Q1043 NOSIG
  • 200745Z AUTO 01006KT 330V030 6000 OVC007 02/01 Q1043 NOSIG
  • 200715Z AUTO 35006KT 6000 BKN007 02/01 Q1043
  • 200645Z AUTO 01005KT 6000 OVC007 02/01 Q1043
  • 200615Z AUTO 34005KT 7000 OVC008 02/01 Q1042

TAF TAF LHSM
Valide du 20 à 09h jusqu'au 20 à 18h UTC


200815Z 2009/2018 35006KT 6000 BKN010 OVC033
TEMPO 2009/2011 4000 BR BKN005



MET'MAP, la Météo Aéronautique d'un coup d'oeil ! - Copyright ORBIFLY Décembre 2007 - Disclaimer

ORBIFLY MET'MAP TEAM :

Programmation & Développement : Alexandra Zaïnal
Sur une idée originale de : Baudouin d'Aumeries
Assistance à la programmation : Marc-Olivier Méhu
Soutien technique & logistique : Manuel Goepfert

Contact : metmap@orbifly.com




SOURCES & CREDITS :

   NOAA